createdAt,value
2023-02-26T00:00:11.044Z,0.84
2023-02-26T00:01:11.042Z,0.85
2023-02-26T00:02:11.160Z,0.82
2023-02-26T00:03:11.046Z,0.78
2023-02-26T00:04:10.981Z,0.81
2023-02-26T00:05:11.013Z,0.82
2023-02-26T00:06:10.964Z,0.86
2023-02-26T00:07:10.943Z,0.89
2023-02-26T00:08:10.936Z,0.91
2023-02-26T00:09:10.913Z,0.96
2023-02-26T00:10:10.913Z,0.94
2023-02-26T00:11:10.893Z,0.99
2023-02-26T00:12:10.871Z,1.02
2023-02-26T00:13:10.854Z,0.99
2023-02-26T00:14:10.851Z,0.99
2023-02-26T00:15:10.851Z,1.00
2023-02-26T00:16:10.813Z,1.00
2023-02-26T00:17:11.307Z,0.96
2023-02-26T00:18:10.782Z,0.96
2023-02-26T00:19:10.784Z,1.02
2023-02-26T00:20:10.788Z,1.06
2023-02-26T00:21:10.765Z,1.07
2023-02-26T00:22:10.737Z,1.10
2023-02-26T00:23:10.734Z,1.10
2023-02-26T00:24:10.727Z,1.10
2023-02-26T00:25:10.721Z,1.07
2023-02-26T00:26:10.691Z,1.04
2023-02-26T00:27:10.680Z,1.03
2023-02-26T00:28:10.663Z,1.02
2023-02-26T00:29:10.669Z,1.00
2023-02-26T00:30:10.652Z,1.00
2023-02-26T00:31:10.784Z,1.00
2023-02-26T00:32:10.793Z,1.04
2023-02-26T00:33:10.602Z,1.07
2023-02-26T00:34:10.600Z,1.09
2023-02-26T00:35:10.647Z,1.06
2023-02-26T00:36:10.572Z,1.06
2023-02-26T00:37:10.554Z,1.07
2023-02-26T00:38:10.573Z,1.09
2023-02-26T00:39:10.535Z,1.04
2023-02-26T00:40:10.513Z,1.06
2023-02-26T00:41:10.522Z,0.99
2023-02-26T00:42:10.538Z,0.96
2023-02-26T00:43:10.520Z,0.96
2023-02-26T00:44:10.500Z,0.91
2023-02-26T00:45:10.468Z,0.92
2023-02-26T00:46:10.535Z,0.89
2023-02-26T00:47:10.449Z,0.89
2023-02-26T00:48:10.412Z,0.91
2023-02-26T00:49:10.465Z,0.86
2023-02-26T00:50:10.409Z,0.85
2023-02-26T00:51:10.394Z,0.82
2023-02-26T00:52:10.363Z,0.76
2023-02-26T00:53:10.362Z,0.74
2023-02-26T00:54:10.322Z,0.76
2023-02-26T00:55:10.333Z,0.77
2023-02-26T00:56:10.320Z,0.76
2023-02-26T00:57:10.302Z,0.73
2023-02-26T00:58:10.285Z,0.71
2023-02-26T00:59:10.272Z,0.70
2023-02-26T01:00:10.251Z,0.71
2023-02-26T01:01:10.284Z,0.66
2023-02-26T01:02:10.232Z,0.67
2023-02-26T01:03:10.225Z,0.67
2023-02-26T01:04:10.240Z,0.68
2023-02-26T01:05:10.191Z,0.70
2023-02-26T01:06:10.199Z,0.64
2023-02-26T01:07:10.179Z,0.61
2023-02-26T01:08:10.164Z,0.61
2023-02-26T01:09:10.150Z,0.61
2023-02-26T01:10:10.145Z,0.63
2023-02-26T01:11:10.128Z,0.67
2023-02-26T01:12:10.111Z,0.66
2023-02-26T01:13:10.128Z,0.59
2023-02-26T01:14:10.086Z,0.58
2023-02-26T01:15:10.060Z,0.58
2023-02-26T01:16:10.151Z,0.59
2023-02-26T01:17:10.036Z,0.56
2023-02-26T01:18:10.772Z,0.56
2023-02-26T01:19:10.022Z,0.61
2023-02-26T01:20:10.012Z,0.63
2023-02-26T01:21:17.254Z,0.64
2023-02-26T01:22:09.989Z,0.64
2023-02-26T01:23:09.991Z,0.66
2023-02-26T01:24:09.964Z,0.67
2023-02-26T01:25:09.943Z,0.71
2023-02-26T01:26:09.938Z,0.73
2023-02-26T01:27:09.914Z,0.68
2023-02-26T01:28:09.898Z,0.70
2023-02-26T01:29:09.884Z,0.70
2023-02-26T01:30:09.869Z,0.66
2023-02-26T01:31:09.947Z,0.58
2023-02-26T01:32:10.029Z,0.48
2023-02-26T01:33:09.832Z,0.51
2023-02-26T01:34:09.841Z,0.55
2023-02-26T01:35:09.881Z,0.51
2023-02-26T01:36:09.819Z,0.55
2023-02-26T01:37:09.777Z,0.36
2023-02-26T01:38:09.777Z,0.20
2023-02-26T01:39:09.771Z,0.02
2023-02-26T01:40:09.741Z,-0.03
2023-02-26T01:41:09.731Z,-0.09
2023-02-26T01:42:09.739Z,-0.09
2023-02-26T01:43:09.689Z,-0.05
2023-02-26T01:44:09.702Z,-0.02
2023-02-26T01:45:09.689Z,0.02
2023-02-26T01:46:09.801Z,0.09
2023-02-26T01:47:09.679Z,0.09
2023-02-26T01:48:09.667Z,0.09
2023-02-26T01:49:09.632Z,0.01
2023-02-26T01:50:09.630Z,-0.02
2023-02-26T01:51:09.629Z,-0.05
2023-02-26T01:52:09.622Z,-0.10
2023-02-26T01:53:09.581Z,-0.09
2023-02-26T01:54:09.589Z,-0.05
2023-02-26T01:55:09.572Z,-0.03
2023-02-26T01:56:09.561Z,0.00
2023-02-26T01:57:09.561Z,0.01
2023-02-26T01:58:09.512Z,-0.03
2023-02-26T01:59:09.511Z,-0.05
2023-02-26T02:00:09.511Z,-0.10
2023-02-26T02:01:09.482Z,-0.12
2023-02-26T02:02:09.523Z,-0.09
2023-02-26T02:03:09.500Z,-0.07
2023-02-26T02:04:09.449Z,-0.02
2023-02-26T02:05:09.431Z,0.02
2023-02-26T02:06:09.450Z,0.05
2023-02-26T02:07:09.429Z,0.05
2023-02-26T02:08:09.485Z,-0.03
2023-02-26T02:09:09.379Z,-0.05
2023-02-26T02:10:09.379Z,-0.09
2023-02-26T02:11:09.368Z,-0.10
2023-02-26T02:12:09.366Z,-0.07
2023-02-26T02:13:09.328Z,-0.07
2023-02-26T02:14:09.337Z,-0.09
2023-02-26T02:15:09.305Z,-0.07
2023-02-26T02:16:09.332Z,-0.09
2023-02-26T02:17:09.283Z,-0.09
2023-02-26T02:18:09.307Z,-0.03
2023-02-26T02:19:09.258Z,-0.02
2023-02-26T02:20:09.247Z,-0.03
2023-02-26T02:21:09.225Z,-0.05
2023-02-26T02:22:09.215Z,0.00
2023-02-26T02:23:09.225Z,0.02
2023-02-26T02:24:09.200Z,0.12
2023-02-26T02:25:09.174Z,0.18
2023-02-26T02:26:09.158Z,0.24
2023-02-26T02:27:09.162Z,0.31
2023-02-26T02:28:09.159Z,0.34
2023-02-26T02:29:09.124Z,0.40
2023-02-26T02:30:09.113Z,0.40
2023-02-26T02:31:09.252Z,0.40
2023-02-26T02:32:09.345Z,0.44
2023-02-26T02:33:09.089Z,0.42
2023-02-26T02:34:09.063Z,0.39
2023-02-26T02:35:09.044Z,0.37
2023-02-26T02:36:09.043Z,0.36
2023-02-26T02:37:09.022Z,0.31
2023-02-26T02:38:09.031Z,0.27
2023-02-26T02:39:09.023Z,0.26
2023-02-26T02:40:09.025Z,0.18
2023-02-26T02:41:08.973Z,0.13
2023-02-26T02:42:08.966Z,0.08
2023-02-26T02:43:08.970Z,0.06
2023-02-26T02:44:08.948Z,0.02
2023-02-26T02:45:09.862Z,0.05
2023-02-26T02:46:09.000Z,0.00
2023-02-26T02:47:08.978Z,0.00
2023-02-26T02:48:08.921Z,-0.02
2023-02-26T02:49:08.907Z,-0.03
2023-02-26T02:50:08.852Z,-0.06
2023-02-26T02:51:08.842Z,-0.07
2023-02-26T02:52:08.831Z,-0.10
2023-02-26T02:53:08.822Z,-0.12
2023-02-26T02:54:08.828Z,-0.17
2023-02-26T02:55:08.794Z,-0.21
2023-02-26T02:56:08.783Z,-0.23
2023-02-26T02:57:08.771Z,-0.27
2023-02-26T02:58:08.763Z,-0.28
2023-02-26T02:59:08.771Z,-0.28
2023-02-26T03:00:08.734Z,-0.31
2023-02-26T03:01:08.722Z,-0.30
2023-02-26T03:02:08.709Z,-0.30
2023-02-26T03:03:08.698Z,-0.31
2023-02-26T03:04:08.703Z,-0.30
2023-02-26T03:05:08.668Z,-0.33
2023-02-26T03:06:08.663Z,-0.33
2023-02-26T03:07:08.646Z,-0.35
2023-02-26T03:08:08.628Z,-0.36
2023-02-26T03:09:08.632Z,-0.41
2023-02-26T03:10:08.651Z,-0.42
2023-02-26T03:11:08.597Z,-0.39
2023-02-26T03:12:08.595Z,-0.42
2023-02-26T03:13:08.571Z,-0.38
2023-02-26T03:14:08.572Z,-0.31
2023-02-26T03:15:08.534Z,-0.23
2023-02-26T03:16:08.585Z,-0.15
2023-02-26T03:17:08.515Z,-0.10
2023-02-26T03:18:08.513Z,-0.12
2023-02-26T03:19:08.482Z,-0.12
2023-02-26T03:20:08.501Z,-0.15
2023-02-26T03:21:08.464Z,-0.20
2023-02-26T03:22:08.454Z,-0.20
2023-02-26T03:23:08.463Z,-0.23
2023-02-26T03:24:08.435Z,-0.28
2023-02-26T03:25:08.424Z,-0.36
2023-02-26T03:26:10.582Z,-0.39
2023-02-26T03:27:08.386Z,-0.42
2023-02-26T03:28:08.387Z,-0.44
2023-02-26T03:29:08.367Z,-0.46
2023-02-26T03:30:08.381Z,-0.48
2023-02-26T03:31:08.335Z,-0.51
2023-02-26T03:32:08.433Z,-0.49
2023-02-26T03:33:08.325Z,-0.51
2023-02-26T03:34:08.299Z,-0.56
2023-02-26T03:35:08.306Z,-0.54
2023-02-26T03:36:08.285Z,-0.51
2023-02-26T03:37:08.262Z,-0.53
2023-02-26T03:38:08.250Z,-0.53
2023-02-26T03:39:08.236Z,-0.54
2023-02-26T03:40:08.247Z,-0.54
2023-02-26T03:41:08.222Z,-0.56
2023-02-26T03:42:08.209Z,-0.56
2023-02-26T03:43:08.205Z,-0.54
2023-02-26T03:44:08.186Z,-0.53
2023-02-26T03:45:08.189Z,-0.51
2023-02-26T03:46:08.362Z,-0.46
2023-02-26T03:47:08.150Z,-0.45
2023-02-26T03:48:08.137Z,-0.46
2023-02-26T03:49:08.143Z,-0.49
2023-02-26T03:50:08.154Z,-0.56
2023-02-26T03:51:08.091Z,-0.57
2023-02-26T03:52:08.108Z,-0.64
2023-02-26T03:53:08.060Z,-0.70
2023-02-26T03:54:08.057Z,-0.77
2023-02-26T03:55:08.057Z,-0.78
2023-02-26T03:56:08.036Z,-0.85
2023-02-26T03:57:08.014Z,-0.91
2023-02-26T03:58:08.024Z,-0.99
2023-02-26T03:59:07.994Z,-0.96
2023-02-26T04:00:07.995Z,-0.99
2023-02-26T04:01:07.966Z,-1.00
2023-02-26T04:02:08.024Z,-0.97
2023-02-26T04:03:07.944Z,-0.97
2023-02-26T04:04:07.947Z,-0.97
2023-02-26T04:05:07.929Z,-0.97
2023-02-26T04:06:07.894Z,-0.99
2023-02-26T04:07:07.885Z,-0.99
2023-02-26T04:08:07.883Z,-0.99
2023-02-26T04:09:07.876Z,-1.01
2023-02-26T04:10:07.874Z,-1.00
2023-02-26T04:11:07.834Z,-1.03
2023-02-26T04:12:08.041Z,-1.00
2023-02-26T04:13:07.826Z,-1.03
2023-02-26T04:14:07.857Z,-1.03
2023-02-26T04:15:07.777Z,-1.01
2023-02-26T04:16:07.963Z,-1.03
2023-02-26T04:17:07.761Z,-1.03
2023-02-26T04:18:07.746Z,-1.06
2023-02-26T04:19:07.735Z,-1.06
2023-02-26T04:20:07.723Z,-1.07
2023-02-26T04:21:07.735Z,-1.06
2023-02-26T04:22:07.726Z,-1.07
2023-02-26T04:23:07.704Z,-1.11
2023-02-26T04:24:07.672Z,-1.12
2023-02-26T04:25:07.684Z,-1.18
2023-02-26T04:26:07.672Z,-1.18
2023-02-26T04:27:07.657Z,-1.17
2023-02-26T04:28:07.632Z,-1.19
2023-02-26T04:29:07.600Z,-1.18
2023-02-26T04:30:07.600Z,-1.18
2023-02-26T04:31:07.697Z,-1.18
2023-02-26T04:32:07.784Z,-1.21
2023-02-26T04:33:07.551Z,-1.22
2023-02-26T04:34:07.559Z,-1.21
2023-02-26T04:35:07.544Z,-1.18
2023-02-26T04:36:07.548Z,-1.18
2023-02-26T04:37:07.516Z,-1.17
2023-02-26T04:38:07.487Z,-1.15
2023-02-26T04:39:07.486Z,-1.12
2023-02-26T04:40:07.460Z,-1.11
2023-02-26T04:41:07.467Z,-1.06
2023-02-26T04:42:07.475Z,-1.03
2023-02-26T04:43:07.416Z,-1.00
2023-02-26T04:44:07.398Z,-0.97
2023-02-26T04:45:07.512Z,-0.97
2023-02-26T04:46:07.457Z,-0.97
2023-02-26T04:47:07.377Z,-0.96
2023-02-26T04:48:07.357Z,-0.99
2023-02-26T04:49:08.066Z,-1.04
2023-02-26T04:50:07.314Z,-1.12
2023-02-26T04:51:07.480Z,-1.15
2023-02-26T04:52:07.398Z,-1.18
2023-02-26T04:53:07.336Z,-1.22
2023-02-26T04:54:07.293Z,-1.30
2023-02-26T04:55:07.409Z,-1.35
2023-02-26T04:56:07.275Z,-1.32
2023-02-26T04:57:07.560Z,-1.32
2023-02-26T04:58:07.411Z,-1.33
2023-02-26T04:59:07.452Z,-1.35
2023-02-26T05:00:07.877Z,-1.33
2023-02-26T05:01:08.074Z,-1.35
2023-02-26T05:02:07.192Z,-1.32
2023-02-26T05:03:07.215Z,-1.29
2023-02-26T05:04:07.506Z,-1.25
2023-02-26T05:05:07.172Z,-1.21
2023-02-26T05:06:07.177Z,-1.14
2023-02-26T05:07:07.110Z,-1.07
2023-02-26T05:08:07.115Z,-1.03
2023-02-26T05:09:07.169Z,-0.99
2023-02-26T05:10:07.145Z,-1.00
2023-02-26T05:11:07.176Z,-1.07
2023-02-26T05:12:07.065Z,-1.17
2023-02-26T05:13:07.166Z,-1.22
2023-02-26T05:14:07.015Z,-1.25
2023-02-26T05:15:07.099Z,-1.27
2023-02-26T05:16:09.239Z,-1.27
2023-02-26T05:17:07.771Z,-1.25
2023-02-26T05:18:06.966Z,-1.22
2023-02-26T05:19:06.956Z,-1.22
2023-02-26T05:20:07.024Z,-1.24
2023-02-26T05:21:06.971Z,-1.24
2023-02-26T05:22:06.974Z,-1.22
2023-02-26T05:23:06.994Z,-1.24
2023-02-26T05:24:06.921Z,-1.19
2023-02-26T05:25:06.882Z,-1.18
2023-02-26T05:26:06.897Z,-1.19
2023-02-26T05:27:06.856Z,-1.27
2023-02-26T05:28:06.845Z,-1.30
2023-02-26T05:29:06.853Z,-1.39
2023-02-26T05:30:06.870Z,-1.42
2023-02-26T05:31:07.133Z,-1.46
2023-02-26T05:32:07.211Z,-1.53
2023-02-26T05:33:07.377Z,-1.61
2023-02-26T05:34:06.757Z,-1.66
2023-02-26T05:35:06.759Z,-1.75
2023-02-26T05:36:06.779Z,-1.84
2023-02-26T05:37:06.768Z,-1.90
2023-02-26T05:38:06.739Z,-1.92
2023-02-26T05:39:06.704Z,-1.93
2023-02-26T05:40:06.675Z,-1.92
2023-02-26T05:41:06.674Z,-1.90
2023-02-26T05:42:06.674Z,-1.87
2023-02-26T05:43:06.663Z,-1.81
2023-02-26T05:44:06.644Z,-1.78
2023-02-26T05:45:06.622Z,-1.75
2023-02-26T05:46:06.617Z,-1.71
2023-02-26T05:47:06.611Z,-1.68
2023-02-26T05:48:06.574Z,-1.68
2023-02-26T05:49:06.572Z,-1.66
2023-02-26T05:50:06.561Z,-1.61
2023-02-26T05:51:06.549Z,-1.61
2023-02-26T05:52:06.552Z,-1.61
2023-02-26T05:53:06.519Z,-1.61
2023-02-26T05:54:06.510Z,-1.61
2023-02-26T05:55:06.489Z,-1.61
2023-02-26T05:56:06.481Z,-1.60
2023-02-26T05:57:06.480Z,-1.66
2023-02-26T05:58:06.454Z,-1.74
2023-02-26T05:59:06.447Z,-1.71
2023-02-26T06:00:06.421Z,-1.66
2023-02-26T06:01:06.408Z,-1.66
2023-02-26T06:02:06.488Z,-1.66
2023-02-26T06:03:06.495Z,-1.61
2023-02-26T06:04:06.369Z,-1.57
2023-02-26T06:05:06.365Z,-1.50
2023-02-26T06:06:06.349Z,-1.42
2023-02-26T06:07:06.358Z,-1.36
2023-02-26T06:08:06.322Z,-1.35
2023-02-26T06:09:06.309Z,-1.30
2023-02-26T06:10:06.303Z,-1.35
2023-02-26T06:11:06.276Z,-1.36
2023-02-26T06:12:06.289Z,-1.36
2023-02-26T06:13:06.257Z,-1.33
2023-02-26T06:14:06.238Z,-1.29
2023-02-26T06:15:06.216Z,-1.24
2023-02-26T06:16:06.227Z,-1.19
2023-02-26T06:17:06.219Z,-1.15
2023-02-26T06:18:06.191Z,-1.12
2023-02-26T06:19:06.180Z,-1.06
2023-02-26T06:20:06.165Z,-1.03
2023-02-26T06:21:06.159Z,-1.03
2023-02-26T06:22:06.165Z,-1.00
2023-02-26T06:23:06.123Z,-0.99
2023-02-26T06:24:06.122Z,-0.94
2023-02-26T06:25:06.110Z,-0.87
2023-02-26T06:26:06.088Z,-0.87
2023-02-26T06:27:06.087Z,-0.94
2023-02-26T06:28:06.064Z,-1.00
2023-02-26T06:29:06.045Z,-1.12
2023-02-26T06:30:06.040Z,-1.29
2023-02-26T06:31:06.073Z,-1.38
2023-02-26T06:32:06.132Z,-1.39
2023-02-26T06:33:06.009Z,-1.43
2023-02-26T06:34:05.987Z,-1.43
2023-02-26T06:35:05.967Z,-1.43
2023-02-26T06:36:05.959Z,-1.42
2023-02-26T06:37:06.000Z,-1.42
2023-02-26T06:38:05.941Z,-1.38
2023-02-26T06:39:05.930Z,-1.35
2023-02-26T06:40:05.912Z,-1.33
2023-02-26T06:41:05.900Z,-1.33
2023-02-26T06:42:05.910Z,-1.29
2023-02-26T06:43:05.880Z,-1.24
2023-02-26T06:44:05.859Z,-1.19
2023-02-26T06:45:05.849Z,-1.15
2023-02-26T06:46:05.964Z,-1.14
2023-02-26T06:47:05.841Z,-1.14
2023-02-26T06:48:05.811Z,-1.14
2023-02-26T06:49:05.799Z,-1.09
2023-02-26T06:50:05.785Z,-1.09
2023-02-26T06:51:07.441Z,-1.12
2023-02-26T06:52:05.780Z,-1.15
2023-02-26T06:53:05.757Z,-1.21
2023-02-26T06:54:05.752Z,-1.32
2023-02-26T06:55:05.747Z,-1.38
2023-02-26T06:56:05.722Z,-1.39
2023-02-26T06:57:05.744Z,-1.39
2023-02-26T06:58:05.680Z,-1.39
2023-02-26T06:59:05.739Z,-1.38
2023-02-26T07:00:05.762Z,-1.36
2023-02-26T07:01:05.713Z,-1.30
2023-02-26T07:02:05.719Z,-1.32
2023-02-26T07:03:05.660Z,-1.32
2023-02-26T07:04:05.599Z,-1.33
2023-02-26T07:05:05.620Z,-1.38
2023-02-26T07:06:25.610Z,-1.40
2023-02-26T07:07:06.586Z,-1.39
2023-02-26T07:08:05.567Z,-1.38
2023-02-26T07:09:05.608Z,-1.38
2023-02-26T07:10:05.538Z,-1.38
2023-02-26T07:11:05.519Z,-1.38
2023-02-26T07:12:05.518Z,-1.35
2023-02-26T07:13:05.488Z,-1.38
2023-02-26T07:14:05.476Z,-1.39
2023-02-26T07:15:05.474Z,-1.38
2023-02-26T07:16:05.454Z,-1.33
2023-02-26T07:17:05.547Z,-1.33
2023-02-26T07:18:05.415Z,-1.35
2023-02-26T07:19:05.416Z,-1.30
2023-02-26T07:20:05.394Z,-1.27
2023-02-26T07:21:05.394Z,-1.24
2023-02-26T07:22:05.386Z,-1.19
2023-02-26T07:23:05.368Z,-1.14
2023-02-26T07:24:05.335Z,-1.12
2023-02-26T07:25:05.335Z,-1.06
2023-02-26T07:26:12.511Z,-1.03
2023-02-26T07:27:05.308Z,-1.01
2023-02-26T07:28:05.295Z,-0.97
2023-02-26T07:29:05.277Z,-0.94
2023-02-26T07:30:05.262Z,-0.93
2023-02-26T07:31:05.406Z,-0.87
2023-02-26T07:32:05.273Z,-0.82
2023-02-26T07:33:05.248Z,-0.87
2023-02-26T07:34:05.206Z,-0.91
2023-02-26T07:35:05.216Z,-0.89
2023-02-26T07:36:05.186Z,-0.89
2023-02-26T07:37:05.196Z,-0.91
2023-02-26T07:38:05.165Z,-0.87
2023-02-26T07:39:05.149Z,-0.85
2023-02-26T07:40:05.138Z,-0.81
2023-02-26T07:41:05.127Z,-0.75
2023-02-26T07:42:05.103Z,-0.67
2023-02-26T07:43:05.116Z,-0.62
2023-02-26T07:44:05.086Z,-0.60
2023-02-26T07:45:05.073Z,-0.54
2023-02-26T07:46:05.118Z,-0.49
2023-02-26T07:47:05.040Z,-0.54
2023-02-26T07:48:05.041Z,-0.51
2023-02-26T07:49:05.030Z,-0.46
2023-02-26T07:50:05.004Z,-0.38
2023-02-26T07:51:05.036Z,-0.36
2023-02-26T07:52:04.982Z,-0.30
2023-02-26T07:53:04.981Z,-0.23
2023-02-26T07:54:04.951Z,-0.20
2023-02-26T07:55:05.062Z,-0.17
2023-02-26T07:56:04.936Z,-0.15
2023-02-26T07:57:04.912Z,-0.12
2023-02-26T07:58:04.923Z,-0.05
2023-02-26T07:59:04.898Z,0.00
2023-02-26T08:00:04.867Z,0.05
2023-02-26T08:01:04.939Z,0.08
2023-02-26T08:02:04.859Z,0.09
2023-02-26T08:03:04.860Z,0.13
2023-02-26T08:04:04.900Z,0.19
2023-02-26T08:05:04.818Z,0.24
2023-02-26T08:06:04.830Z,0.29
2023-02-26T08:07:04.835Z,0.33
2023-02-26T08:08:04.798Z,0.36
2023-02-26T08:09:04.768Z,0.36
2023-02-26T08:10:04.761Z,0.31
2023-02-26T08:11:04.747Z,0.34
2023-02-26T08:12:04.728Z,0.37
2023-02-26T08:13:04.753Z,0.44
2023-02-26T08:14:04.707Z,0.39
2023-02-26T08:15:04.688Z,0.48
2023-02-26T08:16:04.719Z,0.56
2023-02-26T08:17:04.674Z,0.58
2023-02-26T08:18:04.675Z,0.66
2023-02-26T08:19:04.645Z,1.12
2023-02-26T08:20:04.617Z,1.82
2023-02-26T08:21:04.614Z,2.16
2023-02-26T08:22:04.648Z,2.32
2023-02-26T08:23:04.608Z,2.46
2023-02-26T08:24:04.572Z,3.01
2023-02-26T08:25:04.567Z,3.31
2023-02-26T08:26:04.549Z,3.43
2023-02-26T08:27:04.539Z,3.48
2023-02-26T08:28:04.535Z,3.76
2023-02-26T08:29:04.520Z,3.76
2023-02-26T08:30:04.503Z,3.84
2023-02-26T08:31:04.629Z,3.66
2023-02-26T08:32:04.568Z,3.41
2023-02-26T08:33:04.475Z,3.22
2023-02-26T08:34:04.447Z,3.09
2023-02-26T08:35:04.435Z,2.91
2023-02-26T08:36:04.415Z,2.75
2023-02-26T08:37:04.414Z,2.64
2023-02-26T08:38:04.415Z,2.55
2023-02-26T08:39:04.391Z,2.52
2023-02-26T08:40:04.363Z,2.51
2023-02-26T08:41:04.361Z,2.44
2023-02-26T08:42:04.382Z,2.40
2023-02-26T08:43:04.344Z,2.41
2023-02-26T08:44:04.317Z,2.39
2023-02-26T08:45:04.300Z,2.36
2023-02-26T08:46:04.286Z,2.34
2023-02-26T08:47:04.275Z,2.34
2023-02-26T08:48:04.256Z,2.43
2023-02-26T08:49:04.255Z,2.47
2023-02-26T08:50:04.233Z,2.47
2023-02-26T08:51:04.236Z,2.46
2023-02-26T08:52:04.217Z,2.40
2023-02-26T08:53:04.218Z,2.33
2023-02-26T08:54:04.165Z,2.30
2023-02-26T08:55:04.185Z,2.33
2023-02-26T08:56:04.175Z,2.36
2023-02-26T08:57:04.145Z,2.41
2023-02-26T08:58:04.214Z,2.52
2023-02-26T08:59:04.250Z,2.54
2023-02-26T09:00:04.134Z,2.58
2023-02-26T09:01:04.106Z,2.64
2023-02-26T09:02:04.105Z,2.70
2023-02-26T09:03:04.131Z,2.73
2023-02-26T09:04:04.057Z,2.79
2023-02-26T09:05:04.034Z,2.83
2023-02-26T09:06:04.037Z,2.82
2023-02-26T09:07:04.022Z,2.79
2023-02-26T09:08:04.005Z,2.77
2023-02-26T09:09:04.008Z,2.76
2023-02-26T09:10:03.980Z,2.61
2023-02-26T09:11:03.967Z,2.55
2023-02-26T09:12:03.955Z,2.54
2023-02-26T09:13:03.947Z,2.58
2023-02-26T09:14:03.934Z,2.61
2023-02-26T09:15:03.917Z,2.55
2023-02-26T09:16:03.912Z,2.52
2023-02-26T09:17:03.909Z,2.44
2023-02-26T09:18:03.865Z,2.47
2023-02-26T09:19:03.882Z,2.43
2023-02-26T09:20:03.845Z,2.41
2023-02-26T09:21:03.835Z,2.40
2023-02-26T09:22:06.049Z,2.41
2023-02-26T09:23:03.807Z,2.40
2023-02-26T09:24:03.805Z,2.39
2023-02-26T09:25:03.885Z,2.37
2023-02-26T09:26:03.773Z,2.34
2023-02-26T09:27:03.763Z,2.34
2023-02-26T09:28:03.805Z,2.34
2023-02-26T09:29:03.744Z,2.33
2023-02-26T09:30:03.714Z,2.28
2023-02-26T09:31:03.877Z,2.23
2023-02-26T09:32:03.840Z,2.30
2023-02-26T09:33:03.686Z,2.36
2023-02-26T09:34:03.720Z,2.41
2023-02-26T09:35:03.688Z,2.47
2023-02-26T09:36:03.692Z,2.47
2023-02-26T09:37:03.623Z,2.51
2023-02-26T09:38:03.615Z,2.55
2023-02-26T09:39:03.603Z,2.57
2023-02-26T09:40:03.593Z,2.70
2023-02-26T09:41:03.687Z,2.73
2023-02-26T09:42:03.563Z,2.73
2023-02-26T09:43:03.562Z,2.73
2023-02-26T09:44:04.174Z,2.75
2023-02-26T09:45:03.531Z,2.76
2023-02-26T09:46:03.533Z,2.82
2023-02-26T09:47:03.518Z,2.82
2023-02-26T09:48:03.490Z,2.80
2023-02-26T09:49:03.484Z,2.76
2023-02-26T09:50:03.529Z,2.77
2023-02-26T09:51:03.449Z,2.90
2023-02-26T09:52:03.474Z,2.90
2023-02-26T09:53:03.414Z,2.85
2023-02-26T09:54:03.423Z,2.79
2023-02-26T09:55:03.416Z,2.69
2023-02-26T09:56:03.388Z,2.61
2023-02-26T09:57:03.363Z,2.55
2023-02-26T09:58:03.368Z,2.47
2023-02-26T09:59:03.356Z,2.46
2023-02-26T10:00:03.318Z,2.46
2023-02-26T10:01:03.335Z,2.44
2023-02-26T10:02:03.342Z,2.44
2023-02-26T10:03:03.295Z,2.44
2023-02-26T10:04:03.315Z,2.46
2023-02-26T10:05:03.303Z,2.46
2023-02-26T10:06:03.278Z,2.44
2023-02-26T10:07:03.244Z,2.47
2023-02-26T10:08:03.237Z,2.51
2023-02-26T10:09:03.211Z,2.57
2023-02-26T10:10:03.226Z,2.64
2023-02-26T10:11:03.188Z,2.58
2023-02-26T10:12:03.181Z,2.58
2023-02-26T10:13:03.161Z,2.57
2023-02-26T10:14:03.147Z,2.58
2023-02-26T10:15:03.149Z,2.58
2023-02-26T10:16:03.144Z,2.61
2023-02-26T10:17:03.174Z,2.61
2023-02-26T10:18:03.099Z,2.65
2023-02-26T10:19:03.090Z,2.64
2023-02-26T10:20:03.100Z,2.64
2023-02-26T10:21:03.057Z,2.62
2023-02-26T10:22:03.060Z,2.64
2023-02-26T10:23:03.037Z,2.68
2023-02-26T10:24:03.047Z,2.69
2023-02-26T10:25:03.020Z,2.75
2023-02-26T10:26:03.023Z,2.79
2023-02-26T10:27:03.053Z,2.83
2023-02-26T10:28:02.967Z,2.88
2023-02-26T10:29:02.956Z,2.88
2023-02-26T10:30:03.200Z,2.85
2023-02-26T10:31:02.994Z,2.90
2023-02-26T10:32:03.069Z,2.91
2023-02-26T10:33:02.894Z,2.93
2023-02-26T10:34:03.094Z,2.97
2023-02-26T10:35:02.885Z,2.97
2023-02-26T10:36:02.881Z,2.98
2023-02-26T10:37:02.871Z,2.98
2023-02-26T10:38:02.862Z,2.94
2023-02-26T10:39:02.852Z,2.90
2023-02-26T10:40:02.811Z,2.93
2023-02-26T10:41:02.821Z,2.94
2023-02-26T10:42:02.805Z,2.93
2023-02-26T10:43:02.771Z,2.90
2023-02-26T10:44:02.749Z,2.91
2023-02-26T10:45:02.744Z,2.91
2023-02-26T10:46:02.763Z,2.88
2023-02-26T10:47:02.709Z,2.88
2023-02-26T10:48:02.705Z,2.88
2023-02-26T10:49:02.687Z,2.87
2023-02-26T10:50:02.670Z,2.91
2023-02-26T10:51:02.660Z,2.91
2023-02-26T10:52:02.645Z,2.95
2023-02-26T10:53:02.627Z,2.94
2023-02-26T10:54:02.636Z,2.95
2023-02-26T10:55:02.650Z,2.95
2023-02-26T10:56:02.595Z,2.93
2023-02-26T10:57:02.618Z,2.93
2023-02-26T10:58:02.576Z,2.94
2023-02-26T10:59:02.540Z,2.95
2023-02-26T11:00:02.546Z,2.95
2023-02-26T11:01:02.630Z,2.95
2023-02-26T11:02:02.516Z,3.01
2023-02-26T11:03:02.500Z,3.05
2023-02-26T11:04:02.529Z,3.09
2023-02-26T11:05:07.779Z,3.11
2023-02-26T11:06:03.479Z,3.09
2023-02-26T11:07:02.474Z,3.06
2023-02-26T11:08:02.452Z,3.08
2023-02-26T11:09:02.433Z,3.09
2023-02-26T11:10:02.425Z,3.08
2023-02-26T11:11:02.416Z,3.13
2023-02-26T11:12:02.382Z,3.18
2023-02-26T11:13:02.375Z,3.24
2023-02-26T11:14:02.364Z,3.27
2023-02-26T11:15:02.345Z,3.31
2023-02-26T11:16:02.438Z,3.31
2023-02-26T11:17:02.349Z,3.33
2023-02-26T11:18:02.312Z,3.31
2023-02-26T11:19:02.368Z,3.34
2023-02-26T11:20:02.375Z,3.37
2023-02-26T11:21:02.313Z,3.41
2023-02-26T11:22:02.275Z,3.43
2023-02-26T11:23:02.247Z,3.43
2023-02-26T11:24:02.244Z,3.49
2023-02-26T11:25:02.223Z,3.48
2023-02-26T11:26:02.221Z,3.52
2023-02-26T11:27:02.227Z,3.50
2023-02-26T11:28:02.308Z,3.55
2023-02-26T11:29:02.173Z,3.55
2023-02-26T11:30:02.174Z,3.52
2023-02-26T11:31:02.244Z,3.53
2023-02-26T11:32:02.286Z,3.53
2023-02-26T11:33:02.133Z,3.55
2023-02-26T11:34:02.115Z,3.53
2023-02-26T11:35:02.115Z,3.50
2023-02-26T11:36:02.084Z,3.49
2023-02-26T11:37:02.085Z,3.48
2023-02-26T11:38:02.065Z,3.45
2023-02-26T11:39:02.050Z,3.37
2023-02-26T11:40:02.053Z,3.34
2023-02-26T11:41:02.019Z,3.33
2023-02-26T11:42:02.028Z,3.34
2023-02-26T11:43:01.992Z,3.34
2023-02-26T11:44:02.014Z,3.34
2023-02-26T11:45:01.962Z,3.36
2023-02-26T11:46:02.112Z,3.34
2023-02-26T11:47:01.952Z,3.33
2023-02-26T11:48:01.923Z,3.33
2023-02-26T11:49:01.914Z,3.31
2023-02-26T11:50:01.925Z,3.27
2023-02-26T11:51:01.882Z,3.22
2023-02-26T11:52:01.901Z,3.22
2023-02-26T11:53:01.884Z,3.19
2023-02-26T11:54:01.863Z,3.19
2023-02-26T11:55:01.829Z,3.18
2023-02-26T11:56:01.914Z,3.19
2023-02-26T11:57:01.817Z,3.21
2023-02-26T11:58:01.788Z,3.21
2023-02-26T11:59:01.789Z,3.26
2023-02-26T12:00:01.842Z,3.29
2023-02-26T12:01:01.770Z,3.29
2023-02-26T12:02:01.779Z,3.30
2023-02-26T12:03:01.747Z,3.30
2023-02-26T12:04:01.788Z,3.29
2023-02-26T12:05:01.690Z,3.31
2023-02-26T12:06:01.685Z,3.30
2023-02-26T12:07:01.687Z,3.31
2023-02-26T12:08:01.656Z,3.33
2023-02-26T12:09:01.644Z,3.36
2023-02-26T12:10:01.640Z,3.34
2023-02-26T12:11:01.615Z,3.34
2023-02-26T12:12:01.634Z,3.36
2023-02-26T12:13:01.593Z,3.36
2023-02-26T12:14:01.584Z,3.36
2023-02-26T12:15:01.559Z,3.37
2023-02-26T12:16:01.646Z,3.34
2023-02-26T12:17:01.575Z,3.36
2023-02-26T12:18:01.534Z,3.36
2023-02-26T12:19:01.521Z,3.36
2023-02-26T12:20:01.504Z,3.36
2023-02-26T12:21:01.481Z,3.43
2023-02-26T12:22:01.485Z,3.56
2023-02-26T12:23:01.465Z,3.64
2023-02-26T12:24:01.434Z,4.10
2023-02-26T12:25:01.455Z,4.13
2023-02-26T12:26:01.432Z,4.40
2023-02-26T12:27:01.424Z,5.37
2023-02-26T12:28:01.403Z,6.62
2023-02-26T12:29:01.385Z,7.29
2023-02-26T12:30:01.376Z,7.37
2023-02-26T12:31:01.446Z,7.53
2023-02-26T12:32:01.416Z,7.00
2023-02-26T12:33:01.353Z,6.34
2023-02-26T12:34:01.323Z,5.80
2023-02-26T12:35:01.296Z,5.44
2023-02-26T12:36:01.297Z,5.04
2023-02-26T12:37:01.316Z,4.78
2023-02-26T12:38:01.321Z,4.64
2023-02-26T12:39:01.255Z,4.53
2023-02-26T12:40:01.269Z,4.42
2023-02-26T12:41:01.233Z,4.30
2023-02-26T12:42:01.220Z,4.21
2023-02-26T12:43:01.218Z,4.13
2023-02-26T12:44:01.212Z,4.10
2023-02-26T12:45:01.196Z,4.07
2023-02-26T12:46:01.160Z,4.04
2023-02-26T12:47:01.174Z,3.95
2023-02-26T12:48:01.160Z,3.92
2023-02-26T12:49:01.121Z,3.89
2023-02-26T12:50:01.110Z,3.86
2023-02-26T12:51:01.101Z,3.86
2023-02-26T12:52:01.099Z,3.89
2023-02-26T12:53:01.093Z,3.92
2023-02-26T12:54:01.132Z,3.96
2023-02-26T12:55:01.040Z,3.99
2023-02-26T12:56:01.039Z,3.99
2023-02-26T12:57:01.030Z,3.99
2023-02-26T12:58:01.020Z,3.96
2023-02-26T12:59:01.009Z,4.00
2023-02-26T13:00:00.983Z,3.96
2023-02-26T13:01:01.039Z,4.00
2023-02-26T13:02:01.868Z,3.95
2023-02-26T13:03:01.007Z,3.94
2023-02-26T13:04:00.989Z,3.94
2023-02-26T13:05:00.921Z,3.94
2023-02-26T13:06:00.902Z,3.94
2023-02-26T13:07:00.895Z,3.94